sensor_id;sensor_type;location;lat;lon;timestamp;pressure;altitude;pressure_sealevel;temperature;humidity
23805;BME280;12083;52.098;7.582;2022-08-24T00:01:57;101310.72;;;26.53;46.11
23805;BME280;12083;52.098;7.582;2022-08-24T00:04:23;101309.25;;;26.49;46.05
23805;BME280;12083;52.098;7.582;2022-08-24T00:06:49;101312.19;;;26.46;45.95
23805;BME280;12083;52.098;7.582;2022-08-24T00:09:15;101320.53;;;26.43;46.46
23805;BME280;12083;52.098;7.582;2022-08-24T00:11:41;101316.38;;;26.39;46.41
23805;BME280;12083;52.098;7.582;2022-08-24T00:14:07;101319.31;;;26.36;46.47
23805;BME280;12083;52.098;7.582;2022-08-24T00:16:33;101309.75;;;26.32;46.96
23805;BME280;12083;52.098;7.582;2022-08-24T00:18:59;101318.22;;;26.28;47.13
23805;BME280;12083;52.098;7.582;2022-08-24T00:21:25;101320.28;;;26.24;47.19
23805;BME280;12083;52.098;7.582;2022-08-24T00:23:52;101314.16;;;26.22;47.10
23805;BME280;12083;52.098;7.582;2022-08-24T00:26:18;101319.91;;;26.18;47.21
23805;BME280;12083;52.098;7.582;2022-08-24T00:28:43;101317.56;;;26.13;47.69
23805;BME280;12083;52.098;7.582;2022-08-24T00:31:10;101324.19;;;26.09;47.54
23805;BME280;12083;52.098;7.582;2022-08-24T00:33:36;101326.13;;;26.07;47.55
23805;BME280;12083;52.098;7.582;2022-08-24T00:36:03;101325.50;;;26.03;47.66
23805;BME280;12083;52.098;7.582;2022-08-24T00:38:29;101326.88;;;25.98;47.74
23805;BME280;12083;52.098;7.582;2022-08-24T00:40:54;101319.03;;;25.95;47.95
23805;BME280;12083;52.098;7.582;2022-08-24T00:43:23;101325.50;;;25.92;48.17
23805;BME280;12083;52.098;7.582;2022-08-24T00:48:31;101319.75;;;25.86;48.54
23805;BME280;12083;52.098;7.582;2022-08-24T00:51:21;101326.59;;;25.79;48.43
23805;BME280;12083;52.098;7.582;2022-08-24T00:53:52;101327.81;;;25.75;48.66
23805;BME280;12083;52.098;7.582;2022-08-24T00:56:31;101323.63;;;25.71;48.60
23805;BME280;12083;52.098;7.582;2022-08-24T00:59:12;101328.41;;;25.67;48.64
23805;BME280;12083;52.098;7.582;2022-08-24T01:01:40;101321.78;;;25.60;48.80
23805;BME280;12083;52.098;7.582;2022-08-24T01:04:13;101326.50;;;25.56;49.14
23805;BME280;12083;52.098;7.582;2022-08-24T01:06:41;101325.06;;;25.52;49.23
23805;BME280;12083;52.098;7.582;2022-08-24T01:09:07;101334.31;;;25.48;49.47
23805;BME280;12083;52.098;7.582;2022-08-24T01:11:33;101330.84;;;25.46;49.38
23805;BME280;12083;52.098;7.582;2022-08-24T01:14:02;101333.88;;;25.42;49.86
23805;BME280;12083;52.098;7.582;2022-08-24T01:16:29;101329.63;;;25.39;49.70
23805;BME280;12083;52.098;7.582;2022-08-24T01:19:32;101333.41;;;25.37;50.03
23805;BME280;12083;52.098;7.582;2022-08-24T01:22:35;101336.44;;;25.32;49.62
23805;BME280;12083;52.098;7.582;2022-08-24T01:25:05;101335.06;;;25.27;49.75
23805;BME280;12083;52.098;7.582;2022-08-24T01:27:33;101329.19;;;25.22;50.23
23805;BME280;12083;52.098;7.582;2022-08-24T01:30:01;101335.78;;;25.18;50.29
23805;BME280;12083;52.098;7.582;2022-08-24T01:32:27;101335.25;;;25.12;50.47
23805;BME280;12083;52.098;7.582;2022-08-24T01:34:54;101331.69;;;25.12;50.33
23805;BME280;12083;52.098;7.582;2022-08-24T01:37:21;101325.94;;;25.05;50.75
23805;BME280;12083;52.098;7.582;2022-08-24T01:39:48;101319.94;;;25.02;50.92
23805;BME280;12083;52.098;7.582;2022-08-24T01:42:14;101332.59;;;25.00;50.88
23805;BME280;12083;52.098;7.582;2022-08-24T01:44:42;101327.69;;;24.94;51.08
23805;BME280;12083;52.098;7.582;2022-08-24T01:47:10;101328.75;;;24.91;51.17
23805;BME280;12083;52.098;7.582;2022-08-24T01:49:39;101329.84;;;24.89;51.19
23805;BME280;12083;52.098;7.582;2022-08-24T01:52:09;101334.81;;;24.82;51.32
23805;BME280;12083;52.098;7.582;2022-08-24T01:54:35;101334.19;;;24.79;51.52
23805;BME280;12083;52.098;7.582;2022-08-24T01:57:03;101336.09;;;24.77;51.49
23805;BME280;12083;52.098;7.582;2022-08-24T01:59:30;101339.97;;;24.73;51.39
23805;BME280;12083;52.098;7.582;2022-08-24T02:02:02;101338.50;;;24.68;51.59
23805;BME280;12083;52.098;7.582;2022-08-24T02:04:28;101347.75;;;24.64;51.59
23805;BME280;12083;52.098;7.582;2022-08-24T02:06:55;101342.59;;;24.61;51.80
23805;BME280;12083;52.098;7.582;2022-08-24T02:09:21;101340.88;;;24.60;51.62
23805;BME280;12083;52.098;7.582;2022-08-24T02:11:47;101342.81;;;24.58;51.84
23805;BME280;12083;52.098;7.582;2022-08-24T02:14:13;101343.06;;;24.55;51.92
23805;BME280;12083;52.098;7.582;2022-08-24T02:16:39;101336.91;;;24.53;52.00
23805;BME280;12083;52.098;7.582;2022-08-24T02:19:05;101346.94;;;24.51;52.01
23805;BME280;12083;52.098;7.582;2022-08-24T02:21:31;101340.91;;;24.48;52.02
23805;BME280;12083;52.098;7.582;2022-08-24T02:23:56;101337.59;;;24.44;52.02
23805;BME280;12083;52.098;7.582;2022-08-24T02:26:22;101345.00;;;24.41;52.49
23805;BME280;12083;52.098;7.582;2022-08-24T02:28:48;101345.22;;;24.38;52.26
23805;BME280;12083;52.098;7.582;2022-08-24T02:31:14;101348.22;;;24.33;52.54
23805;BME280;12083;52.098;7.582;2022-08-24T02:33:42;101344.16;;;24.28;52.51
23805;BME280;12083;52.098;7.582;2022-08-24T02:36:09;101347.19;;;24.23;52.64
23805;BME280;12083;52.098;7.582;2022-08-24T02:38:36;101349.13;;;24.21;52.58
23805;BME280;12083;52.098;7.582;2022-08-24T02:41:05;101351.25;;;24.16;52.78
23805;BME280;12083;52.098;7.582;2022-08-24T02:43:32;101345.31;;;24.11;52.80
23805;BME280;12083;52.098;7.582;2022-08-24T02:45:58;101345.53;;;24.08;52.85
23805;BME280;12083;52.098;7.582;2022-08-24T02:48:24;101343.16;;;24.03;53.08
23805;BME280;12083;52.098;7.582;2022-08-24T02:50:51;101347.91;;;24.00;53.08
23805;BME280;12083;52.098;7.582;2022-08-24T02:53:18;101341.25;;;23.93;53.14
23805;BME280;12083;52.098;7.582;2022-08-24T02:55:45;101354.03;;;23.89;53.29
23805;BME280;12083;52.098;7.582;2022-08-24T02:58:14;101351.56;;;23.86;53.42
23805;BME280;12083;52.098;7.582;2022-08-24T03:00:43;101353.56;;;23.83;53.50
23805;BME280;12083;52.098;7.582;2022-08-24T03:03:09;101358.41;;;23.78;53.51
23805;BME280;12083;52.098;7.582;2022-08-24T03:05:36;101353.34;;;23.73;53.59
23805;BME280;12083;52.098;7.582;2022-08-24T03:08:03;101358.81;;;23.71;53.44
23805;BME280;12083;52.098;7.582;2022-08-24T03:10:31;101363.53;;;23.68;53.70
23805;BME280;12083;52.098;7.582;2022-08-24T03:12:57;101360.19;;;23.64;53.57
23805;BME280;12083;52.098;7.582;2022-08-24T03:15:24;101354.19;;;23.61;53.55
23805;BME280;12083;52.098;7.582;2022-08-24T03:17:50;101356.31;;;23.56;53.59
23805;BME280;12083;52.098;7.582;2022-08-24T03:20:18;101364.50;;;23.54;53.67
23805;BME280;12083;52.098;7.582;2022-08-24T03:22:44;101364.69;;;23.51;53.63
23805;BME280;12083;52.098;7.582;2022-08-24T03:25:16;101355.88;;;23.49;53.78
23805;BME280;12083;52.098;7.582;2022-08-24T03:27:42;101360.59;;;23.46;53.83
23805;BME280;12083;52.098;7.582;2022-08-24T03:30:10;101354.59;;;23.42;53.79
23805;BME280;12083;52.098;7.582;2022-08-24T03:32:39;101359.13;;;23.40;53.81
23805;BME280;12083;52.098;7.582;2022-08-24T03:35:06;101357.66;;;23.36;53.78
23805;BME280;12083;52.098;7.582;2022-08-24T03:37:32;101357.97;;;23.32;54.04
23805;BME280;12083;52.098;7.582;2022-08-24T03:39:58;101360.72;;;23.30;53.84
23805;BME280;12083;52.098;7.582;2022-08-24T03:42:24;101357.38;;;23.26;53.95
23805;BME280;12083;52.098;7.582;2022-08-24T03:44:50;101358.56;;;23.22;54.01
23805;BME280;12083;52.098;7.582;2022-08-24T03:47:17;101363.19;;;23.20;53.90
23805;BME280;12083;52.098;7.582;2022-08-24T03:49:44;101366.03;;;23.17;53.96
23805;BME280;12083;52.098;7.582;2022-08-24T03:52:10;101366.25;;;23.14;54.26
23805;BME280;12083;52.098;7.582;2022-08-24T03:54:36;101361.94;;;23.12;53.94
23805;BME280;12083;52.098;7.582;2022-08-24T03:57:02;101360.44;;;23.08;54.25
23805;BME280;12083;52.098;7.582;2022-08-24T03:59:27;101363.31;;;23.05;54.27
23805;BME280;12083;52.098;7.582;2022-08-24T04:01:56;101365.22;;;23.03;54.50
23805;BME280;12083;52.098;7.582;2022-08-24T04:04:24;101366.31;;;23.00;54.43
23805;BME280;12083;52.098;7.582;2022-08-24T04:06:50;101368.97;;;23.00;54.60
23805;BME280;12083;52.098;7.582;2022-08-24T04:09:17;101366.38;;;22.99;54.66
23805;BME280;12083;52.098;7.582;2022-08-24T04:11:45;101375.38;;;22.98;54.46
23805;BME280;12083;52.098;7.582;2022-08-24T04:14:13;101363.81;;;22.97;54.46
23805;BME280;12083;52.098;7.582;2022-08-24T05:16:13;101414.50;;;22.73;56.23
23805;BME280;12083;52.098;7.582;2022-08-24T05:18:41;101414.50;;;22.73;56.38
23805;BME280;12083;52.098;7.582;2022-08-24T05:21:09;101412.56;;;22.75;56.29
23805;BME280;12083;52.098;7.582;2022-08-24T05:23:37;101415.03;;;22.78;56.15
23805;BME280;12083;52.098;7.582;2022-08-24T05:26:12;101420.22;;;22.82;56.58
23805;BME280;12083;52.098;7.582;2022-08-24T05:28:39;101423.66;;;22.84;56.48
23805;BME280;12083;52.098;7.582;2022-08-24T05:31:19;101420.78;;;22.87;56.30
23805;BME280;12083;52.098;7.582;2022-08-24T05:33:46;101424.09;;;22.90;55.80
23805;BME280;12083;52.098;7.582;2022-08-24T05:36:21;101414.16;;;22.92;55.52
23805;BME280;12083;52.098;7.582;2022-08-24T05:38:48;101413.75;;;22.98;55.52
23805;BME280;12083;52.098;7.582;2022-08-24T05:41:16;101411.84;;;23.00;55.37
23805;BME280;12083;52.098;7.582;2022-08-24T05:43:45;101421.31;;;23.06;55.59
23805;BME280;12083;52.098;7.582;2022-08-24T05:46:12;101429.91;;;23.11;55.16
23805;BME280;12083;52.098;7.582;2022-08-24T05:48:38;101427.81;;;23.16;55.16
23805;BME280;12083;52.098;7.582;2022-08-24T05:51:07;101434.69;;;23.20;54.99
23805;BME280;12083;52.098;7.582;2022-08-24T05:53:40;101431.59;;;23.26;54.77
23805;BME280;12083;52.098;7.582;2022-08-24T05:56:11;101434.00;;;23.31;54.82
23805;BME280;12083;52.098;7.582;2022-08-24T05:58:38;101431.75;;;23.37;54.64
23805;BME280;12083;52.098;7.582;2022-08-24T06:03:39;101445.81;;;23.55;54.21
23805;BME280;12083;52.098;7.582;2022-08-24T06:06:08;101441.28;;;23.82;54.19
23805;BME280;12083;52.098;7.582;2022-08-24T06:08:35;101433.97;;;24.36;54.01
23805;BME280;12083;52.098;7.582;2022-08-24T06:11:02;101434.91;;;25.22;53.26
23805;BME280;12083;52.098;7.582;2022-08-24T06:13:30;101431.97;;;26.31;52.51
23805;BME280;12083;52.098;7.582;2022-08-24T06:18:29;101426.09;;;28.73;49.28
23805;BME280;12083;52.098;7.582;2022-08-24T06:20:55;101427.00;;;29.90;47.20
23805;BME280;12083;52.098;7.582;2022-08-24T06:23:21;101425.44;;;31.00;45.85
23805;BME280;12083;52.098;7.582;2022-08-24T06:25:57;101424.19;;;32.10;43.90
23805;BME280;12083;52.098;7.582;2022-08-24T06:28:42;101431.78;;;33.26;42.33
23805;BME280;12083;52.098;7.582;2022-08-24T06:31:08;101425.75;;;34.13;41.12
23805;BME280;12083;52.098;7.582;2022-08-24T06:33:35;101426.78;;;34.91;39.88
23805;BME280;12083;52.098;7.582;2022-08-24T06:36:01;101428.63;;;35.60;38.64
23805;BME280;12083;52.098;7.582;2022-08-24T06:38:27;101434.13;;;36.35;37.77
23805;BME280;12083;52.098;7.582;2022-08-24T06:40:55;101430.19;;;37.11;36.37
23805;BME280;12083;52.098;7.582;2022-08-24T06:43:21;101439.94;;;37.92;35.38
23805;BME280;12083;52.098;7.582;2022-08-24T06:45:51;101444.97;;;38.65;34.43
23805;BME280;12083;52.098;7.582;2022-08-24T06:48:21;101440.84;;;39.30;33.09
23805;BME280;12083;52.098;7.582;2022-08-24T06:50:48;101442.25;;;39.93;32.07
23805;BME280;12083;52.098;7.582;2022-08-24T06:53:15;101446.66;;;40.53;31.32
23805;BME280;12083;52.098;7.582;2022-08-24T06:55:49;101442.09;;;41.05;30.85
23805;BME280;12083;52.098;7.582;2022-08-24T06:58:16;101443.06;;;41.61;30.33
23805;BME280;12083;52.098;7.582;2022-08-24T07:00:43;101446.63;;;42.00;29.50
23805;BME280;12083;52.098;7.582;2022-08-24T07:03:09;101449.25;;;42.38;28.97
23805;BME280;12083;52.098;7.582;2022-08-24T07:05:38;101447.16;;;42.76;28.23
23805;BME280;12083;52.098;7.582;2022-08-24T07:08:30;101453.22;;;43.03;28.02
23805;BME280;12083;52.098;7.582;2022-08-24T07:10:56;101447.59;;;43.28;26.99
23805;BME280;12083;52.098;7.582;2022-08-24T07:13:22;101445.53;;;43.53;26.76
23805;BME280;12083;52.098;7.582;2022-08-24T07:15:50;101444.03;;;43.80;26.18
23805;BME280;12083;52.098;7.582;2022-08-24T07:18:17;101445.06;;;43.97;25.76
23805;BME280;12083;52.098;7.582;2022-08-24T07:20:47;101448.69;;;44.09;25.49
23805;BME280;12083;52.098;7.582;2022-08-24T07:23:28;101454.81;;;44.00;25.25
23805;BME280;12083;52.098;7.582;2022-08-24T07:25:54;101451.91;;;43.83;25.50
23805;BME280;12083;52.098;7.582;2022-08-24T07:28:20;101463.34;;;43.57;25.49
23805;BME280;12083;52.098;7.582;2022-08-24T07:30:46;101454.81;;;43.29;25.39
23805;BME280;12083;52.098;7.582;2022-08-24T07:33:13;101460.38;;;42.92;25.29
23805;BME280;12083;52.098;7.582;2022-08-24T07:35:39;101472.22;;;42.56;25.55
23805;BME280;12083;52.098;7.582;2022-08-24T07:38:07;101468.22;;;42.09;25.82
23805;BME280;12083;52.098;7.582;2022-08-24T07:40:33;101462.59;;;41.60;25.83
23805;BME280;12083;52.098;7.582;2022-08-24T07:42:59;101470.69;;;41.10;26.07
23805;BME280;12083;52.098;7.582;2022-08-24T07:45:26;101469.38;;;40.62;26.36
23805;BME280;12083;52.098;7.582;2022-08-24T07:47:54;101464.94;;;40.15;26.50
23805;BME280;12083;52.098;7.582;2022-08-24T07:50:30;101466.75;;;39.62;27.14
23805;BME280;12083;52.098;7.582;2022-08-24T07:52:56;101470.16;;;39.16;27.10
23805;BME280;12083;52.098;7.582;2022-08-24T07:55:22;101477.72;;;38.67;27.38
23805;BME280;12083;52.098;7.582;2022-08-24T07:57:48;101475.81;;;38.11;27.81
23805;BME280;12083;52.098;7.582;2022-08-24T08:00:16;101483.94;;;37.62;28.01
23805;BME280;12083;52.098;7.582;2022-08-24T08:02:48;101487.66;;;37.19;28.39
23805;BME280;12083;52.098;7.582;2022-08-24T08:05:18;101489.63;;;36.81;28.80
23805;BME280;12083;52.098;7.582;2022-08-24T08:07:48;101492.88;;;36.47;29.03
23805;BME280;12083;52.098;7.582;2022-08-24T08:10:14;101487.53;;;36.16;29.56
23805;BME280;12083;52.098;7.582;2022-08-24T08:12:40;101483.44;;;35.90;29.37
23805;BME280;12083;52.098;7.582;2022-08-24T08:15:07;101489.94;;;35.66;29.78
23805;BME280;12083;52.098;7.582;2022-08-24T08:17:36;101491.41;;;35.46;30.05
23805;BME280;12083;52.098;7.582;2022-08-24T08:20:05;101498.16;;;35.27;30.55
23805;BME280;12083;52.098;7.582;2022-08-24T08:22:31;101505.41;;;35.04;30.68
23805;BME280;12083;52.098;7.582;2022-08-24T08:25:35;101493.19;;;34.83;30.92
23805;BME280;12083;52.098;7.582;2022-08-24T08:28:04;101490.53;;;34.67;31.10
23805;BME280;12083;52.098;7.582;2022-08-24T08:30:31;101504.50;;;34.56;30.71
23805;BME280;12083;52.098;7.582;2022-08-24T08:32:57;101500.44;;;34.44;31.00
23805;BME280;12083;52.098;7.582;2022-08-24T08:35:23;101499.75;;;34.26;31.25
23805;BME280;12083;52.098;7.582;2022-08-24T08:37:51;101503.16;;;34.12;31.48
23805;BME280;12083;52.098;7.582;2022-08-24T08:40:46;101503.50;;;34.01;31.58
23805;BME280;12083;52.098;7.582;2022-08-24T08:43:38;101497.53;;;33.97;31.80
23805;BME280;12083;52.098;7.582;2022-08-24T08:49:16;101493.91;;;33.80;31.99
23805;BME280;12083;52.098;7.582;2022-08-24T09:00:45;101495.28;;;33.76;32.31
23805;BME280;12083;52.098;7.582;2022-08-24T09:06:26;101497.34;;;33.82;32.42
23805;BME280;12083;52.098;7.582;2022-08-24T09:17:21;101491.19;;;33.80;32.11
23805;BME280;12083;52.098;7.582;2022-08-24T09:22:21;101492.91;;;33.81;32.31
23805;BME280;12083;52.098;7.582;2022-08-24T09:28:14;101484.03;;;33.95;31.85
23805;BME280;12083;52.098;7.582;2022-08-24T09:33:35;101478.09;;;34.08;31.55
23805;BME280;12083;52.098;7.582;2022-08-24T09:36:09;101483.38;;;34.10;31.89
23805;BME280;12083;52.098;7.582;2022-08-24T09:41:41;101478.94;;;34.01;31.97
23805;BME280;12083;52.098;7.582;2022-08-24T09:52:35;101475.53;;;33.90;31.88
23805;BME280;12083;52.098;7.582;2022-08-24T09:55:25;101484.75;;;33.89;31.85
23805;BME280;12083;52.098;7.582;2022-08-24T09:58:43;101486.44;;;33.90;31.78
23805;BME280;12083;52.098;7.582;2022-08-24T10:00:46;101477.22;;;33.91;31.76
23805;BME280;12083;52.098;7.582;2022-08-24T10:03:23;101480.97;;;33.98;31.81
23805;BME280;12083;52.098;7.582;2022-08-24T10:11:49;101477.06;;;34.33;31.36
23805;BME280;12083;52.098;7.582;2022-08-24T10:14:42;101474.00;;;34.44;31.54
23805;BME280;12083;52.098;7.582;2022-08-24T10:17:34;101468.50;;;34.53;31.16
23805;BME280;12083;52.098;7.582;2022-08-24T10:20:19;101465.25;;;34.65;31.46
23805;BME280;12083;52.098;7.582;2022-08-24T10:23:15;101458.41;;;34.77;31.05
23805;BME280;12083;52.098;7.582;2022-08-24T10:26:12;101461.59;;;34.89;30.99
23805;BME280;12083;52.098;7.582;2022-08-24T10:32:06;101453.13;;;35.15;30.71
23805;BME280;12083;52.098;7.582;2022-08-24T10:35:04;101449.63;;;35.37;30.81
23805;BME280;12083;52.098;7.582;2022-08-24T10:40:20;101454.63;;;36.02;29.71
23805;BME280;12083;52.098;7.582;2022-08-24T10:51:50;101446.41;;;37.84;27.63
23805;BME280;12083;52.098;7.582;2022-08-24T10:54:24;101445.41;;;38.13;27.40
23805;BME280;12083;52.098;7.582;2022-08-24T10:57:08;101447.19;;;38.48;27.32
23805;BME280;12083;52.098;7.582;2022-08-24T11:02:37;101434.03;;;39.19;26.73
23805;BME280;12083;52.098;7.582;2022-08-24T11:05:10;101438.34;;;39.41;26.10
23805;BME280;12083;52.098;7.582;2022-08-24T11:07:54;101435.91;;;39.73;25.79
23805;BME280;12083;52.098;7.582;2022-08-24T11:10:29;101439.28;;;40.01;25.37
23805;BME280;12083;52.098;7.582;2022-08-24T11:13:18;101433.97;;;40.32;25.48
23805;BME280;12083;52.098;7.582;2022-08-24T11:15:54;101433.63;;;40.93;24.94
23805;BME280;12083;52.098;7.582;2022-08-24T11:18:20;101433.72;;;41.62;24.31
23805;BME280;12083;52.098;7.582;2022-08-24T11:20:50;101426.00;;;42.45;23.82
23805;BME280;12083;52.098;7.582;2022-08-24T11:23:20;101419.75;;;43.22;23.51
23805;BME280;12083;52.098;7.582;2022-08-24T11:25:58;101427.22;;;43.93;22.38
23805;BME280;12083;52.098;7.582;2022-08-24T11:30:55;101423.81;;;45.24;21.65
23805;BME280;12083;52.098;7.582;2022-08-24T11:33:33;101420.22;;;45.85;21.00
23805;BME280;12083;52.098;7.582;2022-08-24T11:36:01;101426.41;;;46.42;20.79
23805;BME280;12083;52.098;7.582;2022-08-24T11:38:29;101424.00;;;46.90;20.29
23805;BME280;12083;52.098;7.582;2022-08-24T11:49:22;101419.97;;;47.83;19.16
23805;BME280;12083;52.098;7.582;2022-08-24T11:57:37;101412.66;;;48.03;18.66
23805;BME280;12083;52.098;7.582;2022-08-24T12:00:12;101412.22;;;47.90;18.52
23805;BME280;12083;52.098;7.582;2022-08-24T12:16:13;101407.44;;;46.56;19.04
23805;BME280;12083;52.098;7.582;2022-08-24T12:18:53;101404.34;;;46.36;19.00
23805;BME280;12083;52.098;7.582;2022-08-24T12:21:24;101402.19;;;46.21;19.17
23805;BME280;12083;52.098;7.582;2022-08-24T12:23:57;101406.34;;;45.85;19.13
23805;BME280;12083;52.098;7.582;2022-08-24T12:26:46;101402.59;;;45.46;18.96
23805;BME280;12083;52.098;7.582;2022-08-24T12:29:27;101404.44;;;45.13;19.33
23805;BME280;12083;52.098;7.582;2022-08-24T12:32:06;101405.38;;;44.78;19.49
23805;BME280;12083;52.098;7.582;2022-08-24T12:34:57;101397.59;;;44.52;19.53
23805;BME280;12083;52.098;7.582;2022-08-24T12:37:30;101397.84;;;43.92;20.13
23805;BME280;12083;52.098;7.582;2022-08-24T12:40:07;101390.44;;;43.22;20.56
23805;BME280;12083;52.098;7.582;2022-08-24T12:42:46;101384.19;;;42.78;20.35
23805;BME280;12083;52.098;7.582;2022-08-24T12:45:17;101391.84;;;42.58;20.95
23805;BME280;12083;52.098;7.582;2022-08-24T12:59:15;101397.38;;;41.34;21.50
23805;BME280;12083;52.098;7.582;2022-08-24T13:05:08;101388.44;;;40.94;21.92
23805;BME280;12083;52.098;7.582;2022-08-24T13:07:44;101386.63;;;40.75;22.02
23805;BME280;12083;52.098;7.582;2022-08-24T13:10:36;101384.59;;;40.51;22.30
23805;BME280;12083;52.098;7.582;2022-08-24T13:13:13;101390.13;;;40.24;22.25
23805;BME280;12083;52.098;7.582;2022-08-24T13:16:05;101382.53;;;40.00;22.71
23805;BME280;12083;52.098;7.582;2022-08-24T13:18:51;101384.25;;;39.81;22.50
23805;BME280;12083;52.098;7.582;2022-08-24T13:21:39;101380.19;;;39.64;23.08
23805;BME280;12083;52.098;7.582;2022-08-24T13:26:56;101370.81;;;39.32;22.74
23805;BME280;12083;52.098;7.582;2022-08-24T13:29:28;101370.97;;;39.18;22.97
23805;BME280;12083;52.098;7.582;2022-08-24T13:31:57;101373.50;;;39.06;23.01
23805;BME280;12083;52.098;7.582;2022-08-24T13:34:40;101367.94;;;38.93;23.16
23805;BME280;12083;52.098;7.582;2022-08-24T13:37:11;101364.31;;;38.86;23.43
23805;BME280;12083;52.098;7.582;2022-08-24T13:39:53;101360.25;;;38.82;23.29
23805;BME280;12083;52.098;7.582;2022-08-24T13:42:52;101360.91;;;38.77;23.32
23805;BME280;12083;52.098;7.582;2022-08-24T14:06:53;101356.66;;;38.34;23.80
23805;BME280;12083;52.098;7.582;2022-08-24T14:09:47;101354.91;;;38.26;24.04
23805;BME280;12083;52.098;7.582;2022-08-24T14:17:31;101348.19;;;38.01;24.32
23805;BME280;12083;52.098;7.582;2022-08-24T14:22:52;101353.31;;;37.83;24.07
23805;BME280;12083;52.098;7.582;2022-08-24T14:25:26;101346.47;;;37.72;24.42
23805;BME280;12083;52.098;7.582;2022-08-24T14:38:03;101337.53;;;37.21;24.14
23805;BME280;12083;52.098;7.582;2022-08-24T14:40:34;101334.28;;;37.11;24.44
23805;BME280;12083;52.098;7.582;2022-08-24T14:45:50;101335.13;;;36.97;24.72
23805;BME280;12083;52.098;7.582;2022-08-24T14:56:56;101329.53;;;36.69;25.27
23805;BME280;12083;52.098;7.582;2022-08-24T15:02:50;101322.28;;;36.61;25.13
23805;BME280;12083;52.098;7.582;2022-08-24T15:05:28;101320.78;;;36.59;25.29
23805;BME280;12083;52.098;7.582;2022-08-24T15:13:26;101320.66;;;36.52;25.55
23805;BME280;12083;52.098;7.582;2022-08-24T15:15:58;101319.34;;;36.48;25.51
23805;BME280;12083;52.098;7.582;2022-08-24T15:18:37;101318.88;;;36.45;25.34
23805;BME280;12083;52.098;7.582;2022-08-24T15:23:48;101314.84;;;36.41;25.55
23805;BME280;12083;52.098;7.582;2022-08-24T15:26:26;101312.47;;;36.38;25.45
23805;BME280;12083;52.098;7.582;2022-08-24T15:28:55;101311.63;;;36.37;25.53
23805;BME280;12083;52.098;7.582;2022-08-24T15:31:25;101307.56;;;36.33;25.41
23805;BME280;12083;52.098;7.582;2022-08-24T15:33:58;101310.69;;;36.30;25.50
23805;BME280;12083;52.098;7.582;2022-08-24T15:36:25;101311.91;;;36.27;25.79
23805;BME280;12083;52.098;7.582;2022-08-24T15:38:52;101301.53;;;36.23;25.63
23805;BME280;12083;52.098;7.582;2022-08-24T15:46:31;101308.81;;;36.16;25.83
23805;BME280;12083;52.098;7.582;2022-08-24T15:49:20;101306.13;;;36.08;25.51
23805;BME280;12083;52.098;7.582;2022-08-24T15:51:52;101300.56;;;36.01;25.85
23805;BME280;12083;52.098;7.582;2022-08-24T15:56:50;101300.81;;;35.92;25.75
23805;BME280;12083;52.098;7.582;2022-08-24T15:59:43;101305.00;;;35.88;26.03
23805;BME280;12083;52.098;7.582;2022-08-24T16:05:08;101303.06;;;35.73;26.21
23805;BME280;12083;52.098;7.582;2022-08-24T16:10:41;101296.69;;;35.58;25.99
23805;BME280;12083;52.098;7.582;2022-08-24T16:16:03;101290.34;;;35.43;26.14
23805;BME280;12083;52.098;7.582;2022-08-24T16:21:23;101293.53;;;35.32;26.21
23805;BME280;12083;52.098;7.582;2022-08-24T16:32:12;101297.75;;;35.12;26.50
23805;BME280;12083;52.098;7.582;2022-08-24T16:34:42;101301.72;;;35.09;26.22
23805;BME280;12083;52.098;7.582;2022-08-24T16:37:08;101300.16;;;35.07;26.33
23805;BME280;12083;52.098;7.582;2022-08-24T16:39:33;101308.72;;;35.04;26.26
23805;BME280;12083;52.098;7.582;2022-08-24T16:42:06;101303.00;;;34.99;26.37
23805;BME280;12083;52.098;7.582;2022-08-24T16:44:37;101299.94;;;34.94;26.56
23805;BME280;12083;52.098;7.582;2022-08-24T16:47:04;101305.78;;;34.90;26.69
23805;BME280;12083;52.098;7.582;2022-08-24T16:49:30;101305.94;;;34.89;26.16
23805;BME280;12083;52.098;7.582;2022-08-24T16:51:58;101301.88;;;34.85;26.79
23805;BME280;12083;52.098;7.582;2022-08-24T16:54:24;101299.66;;;34.80;26.85
23805;BME280;12083;52.098;7.582;2022-08-24T16:56:51;101294.94;;;34.74;26.44
23805;BME280;12083;52.098;7.582;2022-08-24T16:59:26;101299.06;;;34.70;26.72
23805;BME280;12083;52.098;7.582;2022-08-24T17:01:52;101293.09;;;34.67;26.99
23805;BME280;12083;52.098;7.582;2022-08-24T17:04:18;101291.56;;;34.64;26.73
23805;BME280;12083;52.098;7.582;2022-08-24T17:06:45;101298.41;;;34.60;26.68
23805;BME280;12083;52.098;7.582;2022-08-24T17:09:15;101306.75;;;34.59;26.84
23805;BME280;12083;52.098;7.582;2022-08-24T17:11:40;101299.09;;;34.54;27.06
23805;BME280;12083;52.098;7.582;2022-08-24T17:14:07;101300.50;;;34.50;27.11
23805;BME280;12083;52.098;7.582;2022-08-24T17:16:33;101292.66;;;34.47;27.30
23805;BME280;12083;52.098;7.582;2022-08-24T17:19:02;101301.00;;;34.45;27.41
23805;BME280;12083;52.098;7.582;2022-08-24T17:21:30;101300.53;;;34.42;27.22
23805;BME280;12083;52.098;7.582;2022-08-24T17:23:56;101302.59;;;34.40;27.67
23805;BME280;12083;52.098;7.582;2022-08-24T17:26:21;101299.53;;;34.35;27.59
23805;BME280;12083;52.098;7.582;2022-08-24T17:28:50;101303.66;;;34.31;27.55
23805;BME280;12083;52.098;7.582;2022-08-24T17:31:16;101304.00;;;34.28;27.80
23805;BME280;12083;52.098;7.582;2022-08-24T17:33:42;101308.97;;;34.24;27.74
23805;BME280;12083;52.098;7.582;2022-08-24T17:36:08;101300.44;;;34.19;27.86
23805;BME280;12083;52.098;7.582;2022-08-24T17:38:41;101304.38;;;34.17;27.85
23805;BME280;12083;52.098;7.582;2022-08-24T17:41:11;101307.78;;;34.11;28.11
23805;BME280;12083;52.098;7.582;2022-08-24T17:43:36;101305.59;;;34.06;28.22